Flight Track Log - Related Links

Times and Time Zones

All times are in EDT time to prevent confusion due to time zone crossing. See the VNR160 flight status page for this flight to view local times or setup timezone preferences in your user account.

Time Position Orientation Groundspeed Altitude Reporting Facility
EDT Latitude Longitude Course Direction KTS MPH feet Rate Location/Type
Wed 08:49:59 PM 40.2167 -85.4500 201° Southwest 187 215 3,100  Level Indianapolis TRACON
Wed 08:50:53 PM 40.1667 -85.4833 207° Southwest 282 325 3,100 -85 Level Indianapolis TRACON
Wed 08:51:10 PM 40.1581 -85.4900 211° Southwest 241 277 3,000 2,846 Descending Indianapolis Center
Wed 08:52:11 PM 40.0842 -85.4714 169° South 233 268 6,800 3,024 Climbing Indianapolis Center
Wed 08:53:13 PM 40.0244 -85.4578 170° South 219 252 9,200 1,902 Climbing Indianapolis Center
Wed 08:54:14 PM 39.9542 -85.4414 170° South 246 283 10,700 1,820 Climbing Indianapolis Center
Wed 08:55:15 PM 39.8819 -85.4092 161° South 267 307 12,900 1,122 Climbing Indianapolis Center
Wed 08:56:17 PM 39.8033 -85.3736 161° South 290 334 13,000 49 Climbing Indianapolis Center
Wed 08:57:18 PM 39.7169 -85.3350 161° South 318 366 13,000  Level Indianapolis Center
Wed 08:58:19 PM 39.6300 -85.2964 161° South 327 376 13,000  Level Indianapolis Center
Wed 08:59:21 PM 39.5472 -85.2592 161° South 314 361 13,000  Level Indianapolis Center
Wed 09:00:22 PM 39.4644 -85.2233 162° South 313 360 13,000  Level Indianapolis Center
Wed 09:01:23 PM 39.3797 -85.1858 161° South 317 365 13,000  Level Indianapolis Center
Wed 09:02:25 PM 39.2953 -85.1478 161° South 318 366 13,000  Level Indianapolis Center
Wed 09:03:26 PM 39.2119 -85.1128 162° South 313 360 13,000  Level Indianapolis Center
Wed 09:04:27 PM 39.1294 -85.0756 161° South 312 359 13,000 -341 Level Indianapolis Center
Wed 09:05:29 PM 39.0481 -85.0406 162° South 307 353 12,300 -780 Descending Indianapolis Center
Wed 09:06:30 PM 38.9514 -84.9978 161° South 311 358 11,400 -836 Descending Indianapolis Center
Wed 09:07:31 PM 38.8689 -84.9636 162° South 309 356 10,600 -689 Descending Indianapolis Center
Wed 09:08:32 PM 38.7869 -84.9283 161° South 309 356 10,000 -293 Descending Indianapolis Center
Wed 09:09:34 PM 38.7083 -84.8933 161° South 301 346 10,000 49 Level Indianapolis Center
Wed 09:10:35 PM 38.6342 -84.8622 162° South 302 348 10,100 49 Climbing Indianapolis Center
Wed 09:11:36 PM 38.5553 -84.8303 162° South 298 343 10,100  Level Indianapolis Center
Wed 09:12:38 PM 38.4614 -84.7881 161° South 302 348 10,100 -195 Level Indianapolis Center
Wed 09:13:39 PM 38.3908 -84.7331 149° Southeast 306 352 9,700 -836 Descending Indianapolis Center
Wed 09:14:40 PM 38.3408 -84.6469 126° Southeast 299 344 8,400 -1,475 Descending Indianapolis Center
Wed 09:15:41 PM 38.2914 -84.5650 128° Southeast 293 337 6,700 -1,659 Descending Indianapolis Center
Wed 09:16:43 PM 38.2419 -84.4839 128° Southeast 292 336 5,000 -1,268 Descending Indianapolis Center
Wed 09:17:44 PM 38.1853 -84.4561 159° South 258 297 4,100 -787 Descending Indianapolis Center
Wed 09:18:45 PM 38.1297 -84.4972 210° Southwest 239 275 3,400 -738 Descending Indianapolis Center
Wed 09:19:46 PM 38.0958 -84.5414 226° Southwest 211 243 2,600 -639 Descending Indianapolis Center
Wed 09:20:47 PM 38.0683 -84.5711 220° Southwest 184 212 2,100 -492 Descending Indianapolis Center
Wed 09:22:00 PM 38.0333 -84.6000 228° Southwest  Level FlightAware Approximate
Wed 09:29:00 PM 38.0368 -84.6086 228° Southwest  Level Estimated
Wed 09:30:00 PM 38.0368 -84.6086 228° Southwest  Level Estimated

Login

Don't have an account? Register now (free) for customized features, flight alerts, and more!